KEHA

Elkhart-Morton County Airport

Elkhart, Kansas, USA
METAR KEHA 231015Z AUTO 34006KT 1/4SM -SN OVC001 M04/M04 A3009 RMK AO2 T10451045
Observed Flight Rules
Feb-23 @ 10:15 UTC (16 minutes ago) Instrument Flight Rules
Wind Visibility Clouds Conditions
340° at 6 knots 1/4 miles
  • Overcast at 100' AGL
  • Light Snow
Temperatures Readings
Current -5°C / 23°F
Dewpoint -5°C / 23°F
Humidity 100%
Altimeter 30.09" Hg
Pressure 1019 hPa
Elevation 1099
METAR KEHA 231015Z AUTO 34006KT 1/4SM -SN OVC001 M04/M04 A3009 RMK AO2 T10451045
Observed Flight Rules
Feb-23 @ 10:15 UTC
(16 minutes ago)
LIFR
Wind Visibility
340° at 6 knots 1/4 miles
Clouds
  • Overcast at 100' AGL
Conditions
  • Light Snow
Temperature Dewpoint
-5°C / 23°F -5°C / 23°F
Humidity Altimeter Pressure
100% 30.09" Hg 1019 hPa